createdAt,value
2017-09-01T00:01:59.359Z,64.70
2017-09-01T00:04:25.999Z,64.80
2017-09-01T00:06:52.663Z,64.80
2017-09-01T00:09:19.300Z,64.80
2017-09-01T00:11:45.923Z,64.80
2017-09-01T00:14:12.550Z,64.90
2017-09-01T00:16:39.187Z,64.70
2017-09-01T00:19:05.827Z,64.90
2017-09-01T00:21:32.456Z,64.90
2017-09-01T00:23:59.075Z,64.80
2017-09-01T00:26:25.695Z,64.90
2017-09-01T00:28:52.343Z,64.80
2017-09-01T00:31:18.968Z,64.80
2017-09-01T00:33:45.600Z,64.70
2017-09-01T00:36:12.239Z,64.70
2017-09-01T00:38:38.871Z,64.70
2017-09-01T00:41:05.491Z,64.80
2017-09-01T00:43:32.132Z,64.70
2017-09-01T00:45:58.759Z,64.80
2017-09-01T00:48:25.383Z,64.60
2017-09-01T00:50:52.832Z,64.70
2017-09-01T00:53:19.455Z,64.70
2017-09-01T00:55:46.135Z,64.70
2017-09-01T00:58:12.760Z,64.60
2017-09-01T01:00:39.378Z,64.50
2017-09-01T01:03:06.003Z,64.50
2017-09-01T01:05:32.627Z,64.50
2017-09-01T01:10:38.516Z,64.60
2017-09-01T01:13:05.143Z,64.50
2017-09-01T01:15:31.771Z,64.50
2017-09-01T01:17:58.427Z,64.50
2017-09-01T01:20:25.056Z,64.40
2017-09-01T01:22:51.983Z,64.50
2017-09-01T01:25:18.639Z,64.50
2017-09-01T01:27:45.259Z,64.40
2017-09-01T01:30:11.907Z,64.40
2017-09-01T01:32:38.556Z,64.40
2017-09-01T01:35:05.211Z,64.40
2017-09-01T01:40:20.752Z,64.40
2017-09-01T01:42:47.435Z,64.30
2017-09-01T01:45:14.521Z,64.20
2017-09-01T01:47:41.154Z,64.30
2017-09-01T01:50:07.775Z,64.30
2017-09-01T01:52:34.398Z,64.40
2017-09-01T01:55:01.052Z,64.30
2017-09-01T01:57:27.699Z,64.30
2017-09-01T01:59:54.315Z,64.20
2017-09-01T02:02:20.967Z,64.30
2017-09-01T02:04:47.592Z,64.20
2017-09-01T02:07:14.247Z,64.20
2017-09-01T02:09:40.879Z,64.30
2017-09-01T02:12:07.540Z,64.20
2017-09-01T02:14:34.164Z,64.30
2017-09-01T02:17:00.803Z,64.40
2017-09-01T02:19:27.435Z,64.20
2017-09-01T02:21:54.064Z,64.20
2017-09-01T02:24:20.723Z,64.20
2017-09-01T02:26:47.355Z,64.20
2017-09-01T02:29:14.000Z,64.30
2017-09-01T02:31:40.639Z,64.20
2017-09-01T02:34:07.292Z,64.10
2017-09-01T02:36:33.923Z,64.20
2017-09-01T02:39:00.585Z,64.30
2017-09-01T02:41:27.877Z,64.20
2017-09-01T02:43:54.500Z,64.20
2017-09-01T02:46:21.131Z,64.10
2017-09-01T02:48:48.281Z,64.10
2017-09-01T02:51:14.927Z,64.10
2017-09-01T02:53:41.560Z,64.10
2017-09-01T02:56:08.217Z,64.10
2017-09-01T02:58:34.843Z,64.10
2017-09-01T03:01:01.512Z,64.10
2017-09-01T03:03:28.149Z,64.00
2017-09-01T03:05:54.776Z,64.10
2017-09-01T03:08:21.403Z,64.00
2017-09-01T03:10:48.027Z,64.20
2017-09-01T03:13:14.667Z,64.20
2017-09-01T03:15:41.299Z,64.10
2017-09-01T03:18:07.953Z,64.00
2017-09-01T03:20:34.581Z,64.00
2017-09-01T03:23:01.240Z,64.00
2017-09-01T03:25:27.863Z,63.90
2017-09-01T03:27:54.509Z,63.90
2017-09-01T03:30:23.276Z,64.10
2017-09-01T03:32:49.955Z,64.00
2017-09-01T03:35:16.591Z,63.90
2017-09-01T03:40:32.515Z,63.90
2017-09-01T03:42:59.140Z,64.00
2017-09-01T03:45:25.762Z,63.90
2017-09-01T03:47:52.387Z,63.90
2017-09-01T03:50:19.049Z,63.80
2017-09-01T03:52:45.671Z,63.80
2017-09-01T03:55:12.315Z,63.90
2017-09-01T03:57:38.939Z,63.90
2017-09-01T04:00:05.583Z,63.80
2017-09-01T04:02:32.223Z,63.90
2017-09-01T04:04:58.892Z,63.90
2017-09-01T04:07:25.520Z,63.80
2017-09-01T04:09:52.143Z,63.80
2017-09-01T04:12:18.779Z,63.90
2017-09-01T04:14:45.411Z,63.80
2017-09-01T04:17:12.044Z,63.80
2017-09-01T04:19:38.677Z,63.80
2017-09-01T04:22:05.326Z,63.90
2017-09-01T04:24:31.957Z,63.70
2017-09-01T04:26:58.596Z,63.70
2017-09-01T04:29:25.462Z,63.70
2017-09-01T04:31:52.108Z,63.80
2017-09-01T04:34:18.738Z,63.70
2017-09-01T04:36:45.414Z,63.80
2017-09-01T04:39:12.043Z,63.80
2017-09-01T04:41:38.664Z,63.80
2017-09-01T04:44:05.311Z,63.80
2017-09-01T04:46:31.944Z,63.60
2017-09-01T04:48:58.576Z,63.70
2017-09-01T04:51:25.221Z,63.70
2017-09-01T04:53:51.863Z,63.70
2017-09-01T04:56:18.495Z,63.90
2017-09-01T04:58:45.143Z,63.80
2017-09-01T05:01:11.771Z,63.70
2017-09-01T05:03:38.439Z,63.70
2017-09-01T05:06:05.067Z,63.70
2017-09-01T05:08:32.346Z,63.70
2017-09-01T05:10:58.975Z,63.70
2017-09-01T05:13:25.622Z,63.70
2017-09-01T05:15:52.252Z,63.70
2017-09-01T05:18:18.878Z,63.70
2017-09-01T05:20:45.523Z,63.70
2017-09-01T05:23:12.163Z,63.70
2017-09-01T05:25:38.810Z,63.70
2017-09-01T05:28:05.435Z,63.70
2017-09-01T05:30:32.079Z,63.70
2017-09-01T05:32:59.015Z,63.70
2017-09-01T05:35:25.660Z,63.70
2017-09-01T05:37:52.290Z,63.70
2017-09-01T05:40:18.924Z,63.80
2017-09-01T05:42:45.584Z,63.80
2017-09-01T05:45:12.215Z,63.70
2017-09-01T05:47:38.863Z,63.70
2017-09-01T05:50:05.667Z,63.70
2017-09-01T05:52:32.325Z,63.60
2017-09-01T05:54:58.952Z,63.70
2017-09-01T05:57:25.607Z,63.70
2017-09-01T05:59:52.235Z,63.70
2017-09-01T06:02:18.863Z,63.80
2017-09-01T06:04:45.492Z,63.70
2017-09-01T06:10:03.478Z,63.80
2017-09-01T06:12:30.108Z,63.70
2017-09-01T06:14:56.739Z,63.80
2017-09-01T06:17:23.367Z,63.80
2017-09-01T06:19:50.992Z,63.90
2017-09-01T06:22:17.611Z,63.80
2017-09-01T06:24:44.259Z,63.80
2017-09-01T06:27:10.904Z,63.80
2017-09-01T06:29:37.548Z,63.80
2017-09-01T06:32:04.176Z,63.80
2017-09-01T06:34:30.825Z,63.90
2017-09-01T06:36:57.446Z,63.90
2017-09-01T06:39:24.079Z,63.80
2017-09-01T06:41:50.707Z,63.90
2017-09-01T06:44:17.328Z,63.90
2017-09-01T06:46:43.971Z,63.80
2017-09-01T06:49:10.595Z,63.90
2017-09-01T06:51:37.247Z,64.00
2017-09-01T06:54:03.880Z,64.10
2017-09-01T06:56:30.531Z,63.90
2017-09-01T06:58:57.164Z,63.90
2017-09-01T07:01:23.789Z,64.00
2017-09-01T07:03:50.438Z,64.00
2017-09-01T07:06:17.072Z,64.00
2017-09-01T07:08:43.698Z,64.00
2017-09-01T07:11:10.334Z,64.00
2017-09-01T07:13:36.955Z,64.00
2017-09-01T07:16:03.583Z,64.00
2017-09-01T07:18:30.204Z,64.10
2017-09-01T07:20:56.877Z,64.10
2017-09-01T07:23:23.529Z,64.30
2017-09-01T07:25:50.193Z,64.30
2017-09-01T07:28:16.860Z,64.20
2017-09-01T07:30:43.479Z,64.30
2017-09-01T07:33:10.095Z,64.40
2017-09-01T07:35:36.723Z,64.30
2017-09-01T07:38:03.347Z,64.30
2017-09-01T07:40:29.995Z,64.30
2017-09-01T07:42:56.634Z,64.40
2017-09-01T07:45:23.260Z,64.30
2017-09-01T07:47:49.884Z,64.40
2017-09-01T07:50:16.551Z,64.50
2017-09-01T07:52:43.179Z,64.40
2017-09-01T07:55:09.819Z,64.40
2017-09-01T07:57:36.472Z,64.40
2017-09-01T08:00:03.115Z,64.50
2017-09-01T08:02:29.746Z,64.60
2017-09-01T08:04:56.416Z,64.40
2017-09-01T08:12:51.888Z,64.60
2017-09-01T08:15:18.552Z,64.70
2017-09-01T08:17:45.175Z,64.50
2017-09-01T08:20:11.799Z,64.80
2017-09-01T08:22:38.434Z,64.60
2017-09-01T08:25:05.054Z,64.60
2017-09-01T08:27:34.242Z,64.80
2017-09-01T08:30:00.871Z,64.60
2017-09-01T08:32:27.487Z,64.60
2017-09-01T08:34:54.115Z,64.80
2017-09-01T08:40:10.132Z,64.70
2017-09-01T08:42:36.783Z,64.90
2017-09-01T08:45:03.415Z,65.10
2017-09-01T08:47:30.087Z,64.90
2017-09-01T08:49:56.734Z,65.20
2017-09-01T08:52:23.395Z,65.10
2017-09-01T08:54:50.024Z,65.10
2017-09-01T08:57:16.655Z,65.10
2017-09-01T08:59:43.279Z,65.00
2017-09-01T09:02:09.908Z,65.10
2017-09-01T09:04:36.539Z,65.30
2017-09-01T09:07:03.163Z,65.30
2017-09-01T09:09:29.815Z,65.10
2017-09-01T09:11:56.439Z,65.20
2017-09-01T09:14:23.103Z,65.40
2017-09-01T09:16:49.727Z,65.10
2017-09-01T09:19:16.357Z,65.20
2017-09-01T09:21:42.982Z,65.40
2017-09-01T09:24:09.616Z,65.30
2017-09-01T09:26:36.237Z,65.50
2017-09-01T09:29:02.951Z,65.50
2017-09-01T09:31:29.572Z,65.40
2017-09-01T09:33:56.195Z,65.20
2017-09-01T09:36:22.812Z,65.50
2017-09-01T09:38:49.449Z,65.30
2017-09-01T09:41:16.071Z,65.20
2017-09-01T09:43:42.709Z,65.60
2017-09-01T09:46:09.351Z,65.60
2017-09-01T09:48:35.972Z,65.50
2017-09-01T09:51:02.636Z,65.60
2017-09-01T09:53:29.264Z,65.60
2017-09-01T09:55:55.891Z,65.70
2017-09-01T09:58:22.522Z,65.70
2017-09-01T10:00:49.148Z,65.70
2017-09-01T10:03:15.771Z,65.70
2017-09-01T10:05:42.404Z,65.80
2017-09-01T10:08:09.033Z,65.70
2017-09-01T10:10:35.663Z,65.80
2017-09-01T10:13:02.284Z,65.80
2017-09-01T10:15:28.927Z,65.80
2017-09-01T10:17:55.587Z,65.80
2017-09-01T10:20:22.207Z,65.80
2017-09-01T10:22:48.853Z,65.80
2017-09-01T10:25:15.475Z,65.80
2017-09-01T10:27:42.100Z,65.90
2017-09-01T10:30:08.728Z,65.90
2017-09-01T10:32:35.351Z,65.90
2017-09-01T10:35:01.975Z,65.90
2017-09-01T10:37:28.611Z,65.90
2017-09-01T10:39:55.242Z,65.90
2017-09-01T10:42:21.858Z,65.90
2017-09-01T10:44:48.519Z,65.80
2017-09-01T10:47:15.143Z,65.60
2017-09-01T10:49:41.774Z,65.70
2017-09-01T10:52:08.391Z,65.70
2017-09-01T10:54:35.027Z,65.90
2017-09-01T10:57:01.647Z,65.80
2017-09-01T10:59:28.807Z,65.90
2017-09-01T11:01:55.432Z,65.90
2017-09-01T11:04:22.051Z,65.70
2017-09-01T11:06:48.680Z,66.00
2017-09-01T11:09:15.315Z,66.00
2017-09-01T11:11:41.954Z,66.00
2017-09-01T11:14:08.592Z,66.10
2017-09-01T11:16:35.216Z,66.10
2017-09-01T11:19:07.410Z,66.10
2017-09-01T11:21:39.791Z,66.10
2017-09-01T11:24:12.083Z,66.10
2017-09-01T11:26:38.752Z,66.10
2017-09-01T11:29:05.372Z,66.10
2017-09-01T11:31:31.995Z,66.10
2017-09-01T11:33:58.623Z,66.20
2017-09-01T11:36:25.271Z,66.10
2017-09-01T11:38:51.915Z,66.10
2017-09-01T11:41:18.539Z,66.20
2017-09-01T11:43:45.163Z,66.20
2017-09-01T11:46:11.792Z,66.20
2017-09-01T11:48:38.463Z,66.20
2017-09-01T11:51:05.087Z,66.30
2017-09-01T11:53:31.714Z,66.30
2017-09-01T11:55:58.348Z,66.30
2017-09-01T11:58:24.972Z,66.30
2017-09-01T12:00:51.595Z,66.20
2017-09-01T12:03:18.215Z,66.20
2017-09-01T12:05:44.838Z,66.20
2017-09-01T12:08:11.463Z,66.20
2017-09-01T12:10:38.088Z,66.20
2017-09-01T12:13:04.714Z,66.20
2017-09-01T12:15:31.383Z,66.20
2017-09-01T12:17:58.011Z,66.20
2017-09-01T12:20:24.647Z,66.20
2017-09-01T12:22:51.691Z,66.20
2017-09-01T12:25:19.392Z,66.20
2017-09-01T12:27:46.012Z,66.20
2017-09-01T12:30:12.635Z,66.30
2017-09-01T12:32:39.284Z,66.30
2017-09-01T12:35:05.965Z,66.30
2017-09-01T12:37:32.624Z,66.30
2017-09-01T12:39:59.643Z,66.30
2017-09-01T12:42:26.272Z,66.30
2017-09-01T12:44:52.910Z,66.30
2017-09-01T12:47:21.535Z,66.30
2017-09-01T12:49:48.180Z,66.30
2017-09-01T12:52:14.811Z,66.40
2017-09-01T12:54:41.459Z,66.30
2017-09-01T12:57:08.084Z,66.40
2017-09-01T12:59:34.779Z,66.40
2017-09-01T13:02:01.409Z,66.40
2017-09-01T13:04:28.027Z,66.40
2017-09-01T13:06:54.671Z,66.40
2017-09-01T13:09:21.294Z,66.40
2017-09-01T13:11:47.947Z,66.40
2017-09-01T13:14:14.571Z,66.40
2017-09-01T13:16:41.238Z,66.40
2017-09-01T13:19:07.859Z,66.50
2017-09-01T13:21:34.504Z,66.50
2017-09-01T13:24:01.128Z,66.50
2017-09-01T13:26:27.760Z,66.50
2017-09-01T13:28:54.405Z,66.50
2017-09-01T13:31:21.023Z,66.50
2017-09-01T13:33:47.678Z,66.50
2017-09-01T13:36:14.312Z,66.50
2017-09-01T13:38:41.023Z,66.60
2017-09-01T13:41:07.663Z,66.60
2017-09-01T13:43:35.267Z,66.60
2017-09-01T13:46:01.887Z,66.60
2017-09-01T13:48:28.512Z,66.70
2017-09-01T13:50:55.160Z,66.70
2017-09-01T13:53:21.782Z,66.70
2017-09-01T13:55:48.431Z,66.70
2017-09-01T13:58:15.054Z,66.70
2017-09-01T14:00:41.723Z,66.70
2017-09-01T14:03:08.347Z,66.70
2017-09-01T14:05:34.969Z,66.70
2017-09-01T14:10:50.313Z,66.70
2017-09-01T14:13:16.942Z,66.60
2017-09-01T14:15:43.564Z,66.60
2017-09-01T14:18:10.197Z,66.60
2017-09-01T14:20:36.853Z,66.60
2017-09-01T14:23:03.505Z,66.70
2017-09-01T14:25:30.132Z,66.60
2017-09-01T14:27:56.779Z,66.70
2017-09-01T14:30:23.416Z,66.70
2017-09-01T14:32:50.042Z,66.80
2017-09-01T14:35:16.675Z,66.80
2017-09-01T14:37:43.307Z,66.80
2017-09-01T14:40:09.953Z,66.80
2017-09-01T14:42:36.595Z,66.90
2017-09-01T14:45:03.247Z,66.80
2017-09-01T14:47:29.879Z,66.90
2017-09-01T14:49:56.551Z,66.90
2017-09-01T14:52:23.171Z,66.90
2017-09-01T14:54:49.841Z,66.90
2017-09-01T14:57:18.435Z,67.00
2017-09-01T14:59:45.060Z,67.00
2017-09-01T15:02:11.688Z,67.00
2017-09-01T15:04:38.312Z,67.00
2017-09-01T15:07:04.955Z,67.00
2017-09-01T15:09:31.579Z,67.00
2017-09-01T15:11:58.240Z,67.00
2017-09-01T15:14:24.869Z,67.00
2017-09-01T15:16:51.536Z,67.00
2017-09-01T15:19:18.159Z,67.00
2017-09-01T15:21:44.788Z,67.00
2017-09-01T15:24:11.419Z,67.00
2017-09-01T15:26:38.047Z,67.00
2017-09-01T15:29:04.704Z,67.00
2017-09-01T15:31:31.338Z,67.00
2017-09-01T15:33:57.983Z,67.00
2017-09-01T15:36:25.435Z,67.00
2017-09-01T15:38:52.100Z,67.10
2017-09-01T15:41:18.723Z,67.10
2017-09-01T15:43:45.347Z,67.10
2017-09-01T15:46:11.976Z,67.10
2017-09-01T15:48:38.603Z,67.10
2017-09-01T15:51:05.243Z,67.00
2017-09-01T15:53:31.895Z,67.10
2017-09-01T15:55:58.555Z,67.10
2017-09-01T15:58:25.185Z,67.00
2017-09-01T16:00:51.843Z,67.10
2017-09-01T16:03:18.475Z,67.10
2017-09-01T16:05:45.108Z,67.10
2017-09-01T16:08:11.732Z,67.00
2017-09-01T16:10:38.368Z,67.00
2017-09-01T16:13:05.067Z,67.00
2017-09-01T16:15:31.691Z,67.00
2017-09-01T16:17:58.341Z,67.00
2017-09-01T16:20:24.964Z,67.00
2017-09-01T16:22:51.633Z,66.90
2017-09-01T16:25:18.266Z,67.00
2017-09-01T16:27:44.975Z,67.00
2017-09-01T16:30:11.616Z,67.00
2017-09-01T16:32:38.247Z,67.00
2017-09-01T16:35:04.872Z,66.90
2017-09-01T16:37:31.500Z,67.00
2017-09-01T16:39:58.164Z,66.90
2017-09-01T16:42:24.791Z,66.90
2017-09-01T16:44:51.457Z,66.90
2017-09-01T16:47:18.273Z,66.90
2017-09-01T16:49:44.923Z,66.90
2017-09-01T16:52:11.544Z,66.90
2017-09-01T16:54:38.219Z,66.90
2017-09-01T16:57:04.851Z,66.90
2017-09-01T16:59:31.475Z,66.90
2017-09-01T17:01:58.104Z,66.90
2017-09-01T17:04:24.731Z,66.90
2017-09-01T17:06:51.380Z,66.90
2017-09-01T17:09:18.010Z,66.90
2017-09-01T17:11:44.655Z,67.00
2017-09-01T17:14:11.276Z,67.00
2017-09-01T17:16:37.943Z,67.00
2017-09-01T17:19:04.579Z,67.00
2017-09-01T17:21:31.270Z,67.00
2017-09-01T17:23:57.896Z,67.00
2017-09-01T17:26:24.524Z,67.00
2017-09-01T17:28:51.149Z,66.90
2017-09-01T17:31:17.773Z,66.90
2017-09-01T17:33:44.422Z,66.90
2017-09-01T17:36:11.043Z,66.90
2017-09-01T17:38:37.711Z,66.80
2017-09-01T17:41:04.335Z,66.80
2017-09-01T17:43:30.959Z,66.80
2017-09-01T17:45:57.599Z,66.70
2017-09-01T17:48:24.220Z,66.70
2017-09-01T17:50:50.841Z,66.70
2017-09-01T17:53:17.464Z,66.70
2017-09-01T17:55:44.110Z,66.70
2017-09-01T17:58:10.739Z,66.70
2017-09-01T18:00:37.382Z,66.70
2017-09-01T18:03:04.031Z,66.70
2017-09-01T18:05:30.699Z,66.70
2017-09-01T18:10:46.355Z,66.70
2017-09-01T18:13:12.975Z,66.70
2017-09-01T18:15:39.601Z,66.70
2017-09-01T18:18:06.238Z,66.70
2017-09-01T18:20:32.868Z,66.70
2017-09-01T18:22:59.495Z,66.70
2017-09-01T18:25:26.650Z,66.70
2017-09-01T18:27:53.304Z,66.70
2017-09-01T18:30:19.937Z,66.70
2017-09-01T18:32:46.590Z,66.60
2017-09-01T18:35:13.219Z,66.60
2017-09-01T18:40:28.725Z,66.60
2017-09-01T18:42:55.354Z,66.60
2017-09-01T18:45:21.980Z,66.60
2017-09-01T18:47:48.611Z,66.60
2017-09-01T18:50:15.243Z,66.60
2017-09-01T18:52:41.871Z,66.60
2017-09-01T18:55:08.522Z,66.60
2017-09-01T18:57:35.163Z,66.60
2017-09-01T19:00:01.807Z,66.60
2017-09-01T19:02:28.448Z,66.50
2017-09-01T19:04:55.112Z,66.60
2017-09-01T19:07:22.388Z,66.50
2017-09-01T19:09:49.024Z,66.60
2017-09-01T19:12:15.643Z,66.50
2017-09-01T19:14:43.236Z,66.50
2017-09-01T19:17:09.864Z,66.50
2017-09-01T19:19:36.490Z,66.50
2017-09-01T19:22:03.111Z,66.50
2017-09-01T19:24:29.738Z,66.50
2017-09-01T19:26:56.384Z,66.50
2017-09-01T19:29:23.008Z,66.50
2017-09-01T19:31:49.655Z,66.50
2017-09-01T19:34:16.823Z,66.50
2017-09-01T19:36:43.487Z,66.50
2017-09-01T19:39:10.118Z,66.50
2017-09-01T19:41:36.826Z,66.40
2017-09-01T19:44:03.467Z,66.40
2017-09-01T19:46:30.098Z,66.40
2017-09-01T19:48:56.724Z,66.50
2017-09-01T19:51:23.346Z,66.40
2017-09-01T19:53:49.967Z,66.50
2017-09-01T19:56:16.591Z,66.30
2017-09-01T19:58:43.237Z,66.40
2017-09-01T20:01:09.871Z,66.40
2017-09-01T20:03:36.591Z,66.40
2017-09-01T20:06:03.215Z,66.40
2017-09-01T20:08:29.835Z,66.40
2017-09-01T20:10:56.459Z,66.40
2017-09-01T20:13:23.080Z,66.40
2017-09-01T20:15:49.743Z,66.50
2017-09-01T20:18:16.368Z,66.30
2017-09-01T20:20:42.992Z,66.30
2017-09-01T20:23:09.612Z,66.30
2017-09-01T20:25:36.259Z,66.40
2017-09-01T20:28:02.901Z,66.40
2017-09-01T20:30:29.535Z,66.40
2017-09-01T20:32:56.155Z,66.30
2017-09-01T20:35:22.784Z,66.30
2017-09-01T20:40:38.176Z,66.30
2017-09-01T20:43:04.807Z,66.30
2017-09-01T20:45:31.428Z,66.40
2017-09-01T20:47:58.071Z,66.30
2017-09-01T20:50:24.696Z,66.40
2017-09-01T20:52:52.020Z,66.40
2017-09-01T20:55:18.642Z,66.30
2017-09-01T20:57:45.263Z,66.40
2017-09-01T21:00:11.886Z,66.30
2017-09-01T21:02:38.524Z,66.30
2017-09-01T21:05:05.157Z,66.40
2017-09-01T21:10:21.038Z,66.30
2017-09-01T21:12:47.712Z,66.30
2017-09-01T21:15:14.356Z,66.30
2017-09-01T21:17:40.980Z,66.30
2017-09-01T21:20:07.639Z,66.30
2017-09-01T21:22:34.268Z,66.40
2017-09-01T21:25:01.884Z,66.30
2017-09-01T21:27:28.503Z,66.40
2017-09-01T21:29:55.131Z,66.30
2017-09-01T21:32:21.755Z,66.40
2017-09-01T21:34:48.379Z,66.40
2017-09-01T21:37:15.007Z,66.30
2017-09-01T21:39:41.631Z,66.40
2017-09-01T21:42:08.276Z,66.40
2017-09-01T21:44:34.903Z,66.40
2017-09-01T21:47:01.556Z,66.30
2017-09-01T21:49:28.199Z,66.30
2017-09-01T21:51:54.863Z,66.30
2017-09-01T21:54:21.487Z,66.30
2017-09-01T21:56:48.153Z,66.20
2017-09-01T21:59:14.781Z,66.30
2017-09-01T22:01:41.407Z,66.30
2017-09-01T22:04:08.055Z,66.30
2017-09-01T22:06:34.678Z,66.40
2017-09-01T22:09:01.328Z,66.30
2017-09-01T22:11:27.960Z,66.20
2017-09-01T22:13:54.604Z,66.30
2017-09-01T22:16:21.251Z,66.20
2017-09-01T22:18:47.880Z,66.20
2017-09-01T22:21:14.503Z,66.30
2017-09-01T22:23:41.139Z,66.30
2017-09-01T22:26:07.783Z,66.10
2017-09-01T22:28:34.407Z,66.20
2017-09-01T22:31:01.059Z,66.30
2017-09-01T22:33:27.710Z,66.30
2017-09-01T22:35:54.337Z,66.30
2017-09-01T22:41:05.156Z,66.20
2017-09-01T22:43:31.788Z,66.30
2017-09-01T22:45:58.411Z,66.30
2017-09-01T22:48:25.361Z,66.30
2017-09-01T22:50:51.992Z,66.20
2017-09-01T22:53:18.656Z,66.10
2017-09-01T22:55:45.279Z,66.20
2017-09-01T22:58:11.911Z,66.20
2017-09-01T23:00:38.538Z,66.10
2017-09-01T23:03:05.161Z,66.10
2017-09-01T23:05:31.795Z,66.20
2017-09-01T23:10:46.812Z,66.20
2017-09-01T23:13:13.436Z,66.20
2017-09-01T23:15:40.064Z,66.20
2017-09-01T23:18:06.687Z,66.30
2017-09-01T23:20:33.336Z,66.20
2017-09-01T23:22:59.971Z,66.20
2017-09-01T23:25:26.595Z,66.20
2017-09-01T23:27:53.241Z,66.10
2017-09-01T23:30:19.867Z,66.10
2017-09-01T23:32:46.507Z,66.10
2017-09-01T23:35:13.136Z,66.10
2017-09-01T23:40:28.935Z,66.10
2017-09-01T23:42:55.591Z,66.10
2017-09-01T23:45:22.210Z,66.10
2017-09-01T23:47:49.387Z,66.10
2017-09-01T23:50:16.007Z,66.10
2017-09-01T23:52:42.639Z,66.00
2017-09-01T23:55:09.510Z,66.10
2017-09-01T23:57:36.131Z,66.10
